Morgantown, Pennsylvania
Current Conditions -  °F | °C
As of 7:55 PM on Monday 26 Jan 2015 (Local Time) from KMQS Reporting Station
Light Snow Light Snow  
Wind Chill: 13°   Ceiling: Unl
Heat Index: 25°   Visibility: 4mi
Dew Point: 23°   Wind: 14mph
Humidity: 93%   Direction: 40°NE
Pressure: 29.73"   Gusts: 20mph
Location:  40.16°N, 75.89°W
Report Text: KMQS 270055Z AUTO 04012G17KT 4SM -SN FEW002 M04/M05 A2973 RMK AO2
Loading
Personal Weather Stations






























Interactive Weather Map New forecast layout! Learn more

10-Day Weather Forecast

Advertisements
Track Severe Weather on mobile